createdAt,value
2022-11-12T00:00:40.050Z,31.27
2022-11-12T00:03:07.010Z,30.40
2022-11-12T00:05:33.829Z,34.60
2022-11-12T00:08:00.863Z,31.43
2022-11-12T00:10:27.820Z,35.30
2022-11-12T00:12:55.178Z,33.27
2022-11-12T00:15:22.001Z,32.13
2022-11-12T00:17:48.767Z,33.60
2022-11-12T00:20:15.745Z,33.17
2022-11-12T00:22:43.830Z,37.20
2022-11-12T00:25:10.581Z,45.77
2022-11-12T00:27:37.373Z,70.53
2022-11-12T00:30:04.892Z,64.50
2022-11-12T00:32:31.660Z,62.93
2022-11-12T00:35:02.324Z,86.00
2022-11-12T00:37:29.608Z,46.50
2022-11-12T00:39:56.365Z,78.90
2022-11-12T00:42:23.153Z,68.87
2022-11-12T00:44:50.098Z,88.97
2022-11-12T00:47:17.092Z,133.10
2022-11-12T00:49:43.912Z,98.67
2022-11-12T00:52:10.741Z,75.53
2022-11-12T00:54:37.541Z,53.67
2022-11-12T00:57:04.333Z,49.57
2022-11-12T00:59:32.143Z,44.23
2022-11-12T01:01:58.909Z,53.03
2022-11-12T01:04:25.797Z,27.33
2022-11-12T01:06:52.643Z,40.93
2022-11-12T01:09:19.488Z,38.53
2022-11-12T01:11:46.301Z,31.93
2022-11-12T01:14:13.097Z,41.73
2022-11-12T01:16:40.380Z,43.43
2022-11-12T01:19:08.817Z,26.93
2022-11-12T01:21:39.109Z,51.47
2022-11-12T01:24:06.414Z,26.70
2022-11-12T01:26:33.206Z,29.50
2022-11-12T01:29:00.051Z,24.73
2022-11-12T01:31:37.588Z,26.47
2022-11-12T01:34:06.349Z,32.40
2022-11-12T01:36:35.206Z,27.17
2022-11-12T01:39:02.103Z,30.60
2022-11-12T01:41:31.426Z,28.03
2022-11-12T01:44:08.488Z,30.63
2022-11-12T01:46:35.593Z,27.27
2022-11-12T01:49:03.728Z,27.33
2022-11-12T01:51:36.744Z,27.07
2022-11-12T01:54:05.298Z,25.73
2022-11-12T01:56:32.134Z,25.37
2022-11-12T01:59:10.862Z,28.33
2022-11-12T02:01:37.662Z,27.07
2022-11-12T02:04:04.644Z,24.00
2022-11-12T02:06:31.518Z,25.00
2022-11-12T02:08:58.352Z,23.30
2022-11-12T02:11:25.131Z,26.70
2022-11-12T02:13:58.007Z,29.53
2022-11-12T02:16:29.837Z,28.17
2022-11-12T02:18:56.641Z,24.40
2022-11-12T02:21:24.455Z,24.10
2022-11-12T02:23:58.370Z,22.83
2022-11-12T02:26:25.617Z,25.77
2022-11-12T02:28:52.503Z,26.43
2022-11-12T02:31:19.305Z,23.13
2022-11-12T02:33:46.065Z,23.97
2022-11-12T02:36:12.866Z,24.37
2022-11-12T02:38:39.656Z,24.33
2022-11-12T02:41:06.464Z,24.73
2022-11-12T02:43:33.233Z,26.27
2022-11-12T02:46:00.048Z,26.13
2022-11-12T02:48:27.099Z,24.23
2022-11-12T02:50:54.095Z,23.70
2022-11-12T02:53:21.291Z,24.97
2022-11-12T02:55:48.497Z,23.87
2022-11-12T02:58:15.297Z,24.23
2022-11-12T03:00:42.116Z,22.57
2022-11-12T03:03:09.899Z,23.37
2022-11-12T03:05:36.953Z,23.23
2022-11-12T03:08:05.942Z,25.13
2022-11-12T03:10:33.889Z,24.27
2022-11-12T03:13:01.349Z,23.63
2022-11-12T03:15:28.752Z,23.83
2022-11-12T03:17:55.613Z,25.50
2022-11-12T03:20:22.619Z,25.33
2022-11-12T03:23:00.113Z,25.20
2022-11-12T03:25:27.141Z,21.17
2022-11-12T03:28:01.537Z,24.47
2022-11-12T03:30:28.953Z,24.23
2022-11-12T03:32:55.893Z,23.63
2022-11-12T03:35:22.838Z,26.13
2022-11-12T03:37:49.961Z,24.53
2022-11-12T03:40:17.776Z,25.17
2022-11-12T03:42:48.522Z,22.20
2022-11-12T03:45:16.008Z,23.00
2022-11-12T03:47:44.353Z,22.33
2022-11-12T03:50:12.128Z,25.93
2022-11-12T03:52:39.111Z,22.67
2022-11-12T03:55:06.267Z,24.30
2022-11-12T03:57:33.668Z,25.63
2022-11-12T04:00:00.480Z,26.17
2022-11-12T04:02:30.075Z,24.87
2022-11-12T04:05:15.661Z,23.73
2022-11-12T04:08:00.866Z,21.40
2022-11-12T04:10:31.412Z,25.87
2022-11-12T04:13:17.016Z,23.87
2022-11-12T04:15:43.773Z,25.63
2022-11-12T04:18:29.193Z,26.07
2022-11-12T04:21:14.634Z,22.67
2022-11-12T04:23:41.413Z,23.27
2022-11-12T04:26:23.209Z,25.93
2022-11-12T04:29:08.676Z,23.53
2022-11-12T04:31:35.825Z,19.67
2022-11-12T04:34:22.583Z,23.60
2022-11-12T04:36:49.417Z,25.57
2022-11-12T04:39:16.193Z,22.57
2022-11-12T04:42:01.698Z,23.50
2022-11-12T04:44:47.032Z,22.33
2022-11-12T04:47:13.786Z,29.03
2022-11-12T04:49:40.548Z,23.90
2022-11-12T04:52:07.351Z,24.70
2022-11-12T04:54:34.421Z,22.77
2022-11-12T04:57:01.279Z,24.03
2022-11-12T04:59:28.090Z,24.33
2022-11-12T05:01:55.871Z,22.50
2022-11-12T05:04:22.686Z,24.23
2022-11-12T05:06:52.368Z,25.03
2022-11-12T05:09:19.949Z,25.97
2022-11-12T05:11:46.795Z,21.97
2022-11-12T05:14:13.690Z,28.27
2022-11-12T05:16:40.480Z,23.30
2022-11-12T05:19:07.349Z,26.43
2022-11-12T05:21:52.837Z,24.70
2022-11-12T05:24:40.401Z,24.50
2022-11-12T05:27:11.830Z,28.37
2022-11-12T05:29:38.758Z,23.23
2022-11-12T05:32:06.880Z,22.87
2022-11-12T05:34:33.760Z,25.87
2022-11-12T05:37:01.588Z,24.17
2022-11-12T05:39:28.401Z,28.37
2022-11-12T05:42:11.887Z,27.40
2022-11-12T05:44:39.581Z,25.90
2022-11-12T05:47:06.381Z,26.47
2022-11-12T05:49:33.142Z,22.70
2022-11-12T05:51:59.907Z,25.67
2022-11-12T05:54:26.888Z,25.03
2022-11-12T05:56:53.855Z,23.43
2022-11-12T05:59:20.682Z,23.97
2022-11-12T06:01:47.746Z,25.73
2022-11-12T06:04:14.976Z,23.50
2022-11-12T06:06:42.323Z,28.53
2022-11-12T06:09:09.406Z,25.10
2022-11-12T06:11:36.471Z,22.13
2022-11-12T06:14:03.712Z,24.53
2022-11-12T06:16:30.665Z,24.50
2022-11-12T06:18:57.664Z,25.57
2022-11-12T06:21:24.544Z,25.13
2022-11-12T06:23:53.295Z,25.60
2022-11-12T06:26:20.280Z,23.73
2022-11-12T06:28:47.395Z,26.43
2022-11-12T06:31:14.328Z,23.47
2022-11-12T06:33:41.943Z,22.00
2022-11-12T06:36:10.885Z,26.73
2022-11-12T06:38:38.471Z,24.57
2022-11-12T06:41:05.666Z,27.97
2022-11-12T06:43:32.730Z,24.20
2022-11-12T06:46:01.085Z,23.53
2022-11-12T06:48:28.824Z,23.10
2022-11-12T06:50:56.608Z,21.53
2022-11-12T06:53:24.150Z,22.63
2022-11-12T06:55:51.050Z,22.57
2022-11-12T06:58:17.907Z,22.27
2022-11-12T07:00:44.785Z,26.40
2022-11-12T07:03:13.465Z,21.67
2022-11-12T07:05:40.336Z,23.60
2022-11-12T07:08:07.182Z,22.00
2022-11-12T07:10:33.954Z,22.83
2022-11-12T07:13:00.874Z,22.43
2022-11-12T07:15:27.637Z,26.10
2022-11-12T07:17:54.509Z,22.63
2022-11-12T07:20:21.428Z,22.93
2022-11-12T07:22:48.186Z,24.83
2022-11-12T07:25:15.036Z,24.73
2022-11-12T07:27:41.841Z,27.80
2022-11-12T07:30:09.104Z,24.20
2022-11-12T07:32:40.262Z,21.27
2022-11-12T07:35:10.512Z,23.20
2022-11-12T07:37:37.450Z,21.30
2022-11-12T07:40:04.986Z,19.40
2022-11-12T07:42:35.945Z,24.63
2022-11-12T07:45:02.907Z,20.60
2022-11-12T07:47:29.755Z,23.47
2022-11-12T07:49:56.617Z,20.60
2022-11-12T07:52:23.405Z,26.20
2022-11-12T07:54:50.722Z,23.57
2022-11-12T07:57:17.524Z,25.00
2022-11-12T07:59:46.367Z,21.73
2022-11-12T08:02:13.369Z,24.43
2022-11-12T08:04:40.194Z,21.70
2022-11-12T08:07:07.041Z,24.00
2022-11-12T08:09:33.954Z,19.87
2022-11-12T08:12:00.746Z,22.70
2022-11-12T08:14:27.526Z,25.73
2022-11-12T08:16:54.404Z,20.03
2022-11-12T08:19:21.317Z,22.27
2022-11-12T08:21:48.110Z,25.63
2022-11-12T08:24:14.885Z,25.90
2022-11-12T08:26:41.745Z,24.97
2022-11-12T08:29:09.193Z,23.33
2022-11-12T08:31:36.198Z,23.23
2022-11-12T08:34:12.306Z,21.97
2022-11-12T08:36:40.343Z,22.00
2022-11-12T08:39:07.532Z,25.23
2022-11-12T08:41:34.467Z,21.40
2022-11-12T08:44:07.090Z,20.20
2022-11-12T08:46:35.089Z,21.10
2022-11-12T08:49:02.000Z,22.10
2022-11-12T08:51:28.849Z,22.67
2022-11-12T08:53:56.740Z,24.43
2022-11-12T08:56:23.519Z,24.87
2022-11-12T08:58:50.365Z,26.23
2022-11-12T09:01:17.186Z,21.37
2022-11-12T09:03:44.036Z,21.30
2022-11-12T09:06:10.847Z,21.13
2022-11-12T09:08:37.949Z,22.67
2022-11-12T09:11:04.920Z,22.90
2022-11-12T09:13:32.001Z,21.40
2022-11-12T09:16:02.945Z,19.57
2022-11-12T09:18:30.049Z,23.33
2022-11-12T09:21:01.612Z,22.20
2022-11-12T09:23:28.440Z,21.57
2022-11-12T09:25:56.773Z,20.70
2022-11-12T09:28:23.901Z,20.93
2022-11-12T09:30:51.342Z,19.97
2022-11-12T09:33:29.658Z,24.10
2022-11-12T09:35:56.564Z,19.97
2022-11-12T09:38:23.415Z,21.47
2022-11-12T09:40:53.274Z,21.03
2022-11-12T09:43:28.877Z,20.17
2022-11-12T09:46:13.981Z,18.23
2022-11-12T09:48:49.405Z,18.37
2022-11-12T09:51:25.695Z,19.37
2022-11-12T09:53:57.013Z,19.27
2022-11-12T09:56:23.974Z,19.60
2022-11-12T09:58:52.857Z,22.10
2022-11-12T10:01:37.268Z,18.50
2022-11-12T10:04:41.393Z,110.87
2022-11-12T10:07:35.161Z,154.37
2022-11-12T10:10:37.265Z,190.00
2022-11-12T10:13:33.420Z,192.77
2022-11-12T10:16:48.449Z,173.50
2022-11-12T10:19:23.917Z,144.33
2022-11-12T10:22:24.653Z,181.17
2022-11-12T10:24:51.472Z,168.23
2022-11-12T10:27:22.731Z,149.47
2022-11-12T10:29:54.694Z,162.80
2022-11-12T10:32:21.461Z,149.83
2022-11-12T10:34:48.249Z,147.23
2022-11-12T10:37:35.213Z,122.30
2022-11-12T10:40:32.040Z,122.70
2022-11-12T10:42:59.849Z,122.23
2022-11-12T10:45:26.698Z,108.10
2022-11-12T10:47:53.526Z,101.27
2022-11-12T10:50:36.591Z,91.27
2022-11-12T10:53:07.812Z,99.32
2022-11-12T10:56:00.108Z,88.70
2022-11-12T10:58:27.164Z,72.13
2022-11-12T11:00:55.150Z,62.95
2022-11-12T11:03:25.761Z,74.17
2022-11-12T11:06:05.497Z,74.83
2022-11-12T11:08:39.912Z,66.87
2022-11-12T11:11:26.370Z,61.95
2022-11-12T11:13:57.687Z,58.08
2022-11-12T11:16:29.000Z,56.47
2022-11-12T11:18:59.956Z,54.63
2022-11-12T11:21:33.960Z,53.83
2022-11-12T11:24:30.301Z,56.42
2022-11-12T11:27:00.180Z,51.08
2022-11-12T11:29:26.990Z,51.13
2022-11-12T11:32:00.297Z,48.58
2022-11-12T11:34:48.768Z,51.50
2022-11-12T11:37:21.162Z,52.40
2022-11-12T11:40:30.542Z,52.08
2022-11-12T11:43:11.589Z,54.13
2022-11-12T11:46:15.886Z,45.75
2022-11-12T11:48:45.476Z,53.95
2022-11-12T11:51:37.257Z,57.13
2022-11-12T11:54:28.898Z,52.58
2022-11-12T11:56:58.479Z,45.08
2022-11-12T11:59:52.178Z,45.90
2022-11-12T12:02:24.377Z,47.42
2022-11-12T12:05:11.342Z,47.65
2022-11-12T12:07:41.378Z,42.67
2022-11-12T12:10:53.271Z,45.70
2022-11-12T12:13:41.370Z,42.55
2022-11-12T12:16:29.955Z,48.08
2022-11-12T12:19:18.460Z,44.92
2022-11-12T12:21:46.859Z,38.45
2022-11-12T12:24:18.885Z,41.30
2022-11-12T12:26:48.574Z,37.00
2022-11-12T12:29:35.093Z,35.25
2022-11-12T12:32:14.745Z,34.83
2022-11-12T12:35:07.871Z,33.60
2022-11-12T12:37:47.018Z,30.42
2022-11-12T12:40:50.073Z,32.78
2022-11-12T12:43:28.073Z,30.67
2022-11-12T12:45:54.881Z,31.00
2022-11-12T12:48:23.046Z,30.38
2022-11-12T12:50:49.986Z,29.30
2022-11-12T12:53:25.741Z,27.00
2022-11-12T12:55:58.184Z,26.13
2022-11-12T12:58:32.910Z,25.67
2022-11-12T13:01:03.829Z,25.83
2022-11-12T13:03:43.103Z,24.98
2022-11-12T13:06:31.677Z,23.67
2022-11-12T13:09:04.271Z,23.77
2022-11-12T13:12:01.660Z,24.75
2022-11-12T13:14:37.245Z,24.25
2022-11-12T13:17:05.410Z,23.63
2022-11-12T13:19:53.318Z,24.17
2022-11-12T13:22:20.074Z,25.58
2022-11-12T13:25:16.943Z,26.30
2022-11-12T13:27:43.690Z,25.90
2022-11-12T13:30:13.520Z,27.20
2022-11-12T13:32:51.945Z,26.95
2022-11-12T13:35:39.780Z,27.48
2022-11-12T13:38:10.510Z,26.27
2022-11-12T13:40:56.209Z,24.58
2022-11-12T13:43:43.365Z,26.05
2022-11-12T13:46:10.980Z,26.02
2022-11-12T13:48:44.470Z,27.67
2022-11-12T13:51:34.810Z,27.13
2022-11-12T13:54:01.940Z,27.27
2022-11-12T13:56:35.270Z,27.15
2022-11-12T13:59:21.814Z,27.23
2022-11-12T14:01:49.350Z,27.58
2022-11-12T14:04:25.378Z,27.83
2022-11-12T14:07:04.647Z,27.55
2022-11-12T14:09:59.586Z,27.60
2022-11-12T14:12:29.405Z,29.20
2022-11-12T14:15:02.346Z,28.02
2022-11-12T14:18:10.562Z,27.40
2022-11-12T14:20:40.560Z,30.63
2022-11-12T14:23:25.140Z,29.05
2022-11-12T14:25:56.595Z,30.05
2022-11-12T14:28:23.362Z,26.50
2022-11-12T14:30:50.183Z,26.92
2022-11-12T14:33:21.625Z,26.00
2022-11-12T14:35:49.764Z,28.30
2022-11-12T14:38:37.819Z,26.40
2022-11-12T14:41:08.763Z,25.70
2022-11-12T14:44:11.106Z,27.00
2022-11-12T14:46:39.481Z,29.00
2022-11-12T14:49:17.288Z,28.20
2022-11-12T14:51:48.843Z,28.42
2022-11-12T14:54:52.050Z,28.27
2022-11-12T14:57:23.553Z,31.20
2022-11-12T14:59:50.400Z,29.40
2022-11-12T15:02:41.657Z,28.20
2022-11-12T15:05:19.582Z,35.47
2022-11-12T15:08:00.656Z,32.90
2022-11-12T15:10:41.280Z,29.80
2022-11-12T15:13:20.314Z,30.05
2022-11-12T15:15:55.043Z,30.92
2022-11-12T15:18:26.549Z,27.65
2022-11-12T15:21:11.709Z,32.63
2022-11-12T15:23:49.784Z,33.13
2022-11-12T15:26:47.021Z,30.85
2022-11-12T15:29:15.689Z,31.65
2022-11-12T15:31:51.331Z,31.97
2022-11-12T15:34:29.338Z,31.23
2022-11-12T15:36:56.869Z,29.03
2022-11-12T15:39:25.297Z,35.00
2022-11-12T15:42:06.223Z,33.83
2022-11-12T15:44:35.665Z,38.55
2022-11-12T15:47:02.715Z,32.67
2022-11-12T15:49:29.557Z,34.53
2022-11-12T15:51:56.457Z,32.77
2022-11-12T15:54:23.226Z,32.43
2022-11-12T15:56:50.163Z,35.40
2022-11-12T15:59:17.733Z,31.97
2022-11-12T16:01:44.596Z,30.17
2022-11-12T16:04:12.453Z,33.53
2022-11-12T16:06:39.386Z,35.20
2022-11-12T16:09:06.273Z,36.97
2022-11-12T16:11:35.731Z,38.70
2022-11-12T16:14:07.165Z,43.93
2022-11-12T16:16:34.020Z,47.37
2022-11-12T16:19:00.862Z,50.43
2022-11-12T16:21:27.764Z,56.43
2022-11-12T16:23:54.761Z,56.57
2022-11-12T16:26:25.845Z,53.17
2022-11-12T16:28:52.614Z,55.27
2022-11-12T16:31:20.097Z,63.10
2022-11-12T16:33:46.869Z,67.27
2022-11-12T16:36:14.318Z,65.13
2022-11-12T16:38:41.227Z,65.63
2022-11-12T16:41:11.976Z,74.87
2022-11-12T16:43:39.173Z,70.13
2022-11-12T16:46:27.620Z,72.20
2022-11-12T16:48:54.510Z,78.93
2022-11-12T16:51:21.909Z,78.63
2022-11-12T16:53:48.858Z,80.47
2022-11-12T16:56:19.960Z,87.77
2022-11-12T16:58:48.450Z,91.80
2022-11-12T17:01:29.171Z,76.67
2022-11-12T17:03:56.357Z,44.10
2022-11-12T17:06:24.215Z,37.50
2022-11-12T17:08:54.452Z,40.67
2022-11-12T17:11:21.248Z,41.00
2022-11-12T17:13:48.021Z,40.40
2022-11-12T17:16:14.960Z,45.60
2022-11-12T17:18:41.784Z,34.20
2022-11-12T17:21:15.984Z,35.57
2022-11-12T17:23:42.912Z,39.30
2022-11-12T17:26:11.444Z,48.07
2022-11-12T17:28:38.462Z,39.83
2022-11-12T17:31:16.274Z,39.90
2022-11-12T17:33:44.718Z,39.00
2022-11-12T17:36:13.152Z,39.53
2022-11-12T17:38:40.149Z,41.43
2022-11-12T17:41:07.229Z,42.40
2022-11-12T17:43:37.677Z,46.00
2022-11-12T17:46:06.664Z,46.10
2022-11-12T17:48:34.274Z,42.17
2022-11-12T17:51:10.428Z,45.87
2022-11-12T17:53:37.325Z,39.60
2022-11-12T17:56:04.651Z,51.60
2022-11-12T17:58:31.710Z,43.80
2022-11-12T18:01:29.647Z,43.37
2022-11-12T18:03:57.016Z,39.67
2022-11-12T18:06:26.803Z,40.87
2022-11-12T18:09:01.240Z,39.60
2022-11-12T18:11:29.038Z,41.20
2022-11-12T18:13:56.602Z,48.37
2022-11-12T18:16:27.972Z,55.83
2022-11-12T18:18:55.573Z,57.93
2022-11-12T18:21:22.839Z,57.47
2022-11-12T18:23:49.780Z,58.67
2022-11-12T18:26:18.371Z,69.10
2022-11-12T18:28:50.467Z,81.53
2022-11-12T18:31:17.533Z,76.57
2022-11-12T18:33:44.324Z,79.20
2022-11-12T18:36:13.096Z,81.10
2022-11-12T18:38:39.872Z,73.83
2022-11-12T18:41:08.428Z,70.60
2022-11-12T18:43:38.405Z,66.87
2022-11-12T18:46:05.504Z,59.10
2022-11-12T18:48:33.350Z,50.47
2022-11-12T18:51:13.906Z,50.10
2022-11-12T18:53:41.458Z,46.03
2022-11-12T18:56:10.862Z,44.87
2022-11-12T18:58:38.802Z,45.93
2022-11-12T19:01:07.254Z,51.13
2022-11-12T19:03:34.803Z,52.47
2022-11-12T19:06:02.258Z,55.63
2022-11-12T19:08:29.111Z,50.03
2022-11-12T19:11:03.036Z,53.93
2022-11-12T19:13:30.168Z,50.20
2022-11-12T19:16:22.025Z,46.83
2022-11-12T19:18:49.466Z,47.60
2022-11-12T19:21:18.955Z,48.87
2022-11-12T19:23:51.316Z,48.23
2022-11-12T19:26:20.853Z,50.17
2022-11-12T19:28:47.631Z,48.67
2022-11-12T19:31:15.334Z,44.17
2022-11-12T19:33:42.218Z,45.43
2022-11-12T19:36:10.859Z,49.50
2022-11-12T19:38:37.757Z,47.47
2022-11-12T19:41:12.273Z,48.87
2022-11-12T19:43:41.809Z,51.70
2022-11-12T19:46:09.321Z,47.07
2022-11-12T19:48:36.254Z,43.87
2022-11-12T19:51:04.210Z,46.60
2022-11-12T19:53:32.049Z,45.13
2022-11-12T19:56:02.387Z,44.00
2022-11-12T19:58:29.751Z,45.20
2022-11-12T20:01:02.414Z,46.50
2022-11-12T20:03:29.999Z,44.10
2022-11-12T20:06:18.027Z,43.33
2022-11-12T20:08:45.186Z,40.40
2022-11-12T20:11:12.149Z,39.37
2022-11-12T20:13:39.370Z,43.70
2022-11-12T20:16:13.781Z,40.40
2022-11-12T20:18:40.629Z,42.70
2022-11-12T20:21:09.183Z,43.97
2022-11-12T20:23:36.822Z,38.17
2022-11-12T20:26:08.184Z,39.83
2022-11-12T20:28:35.774Z,40.83
2022-11-12T20:31:04.063Z,42.43
2022-11-12T20:33:30.985Z,41.70
2022-11-12T20:36:11.697Z,34.50
2022-11-12T20:38:42.657Z,37.07
2022-11-12T20:41:20.097Z,36.40
2022-11-12T20:43:47.035Z,36.37
2022-11-12T20:46:14.074Z,34.37
2022-11-12T20:48:43.349Z,37.77
2022-11-12T20:51:28.657Z,39.40
2022-11-12T20:53:59.969Z,38.40
2022-11-12T20:56:28.483Z,38.03
2022-11-12T20:58:55.335Z,35.53
2022-11-12T21:01:23.074Z,32.73
2022-11-12T21:03:50.069Z,35.37
2022-11-12T21:06:18.839Z,38.03
2022-11-12T21:08:45.696Z,39.03
2022-11-12T21:11:17.255Z,37.03
2022-11-12T21:13:44.081Z,34.80
2022-11-12T21:16:11.566Z,40.30
2022-11-12T21:18:38.442Z,40.30
2022-11-12T21:21:16.958Z,34.77
2022-11-12T21:23:45.215Z,37.43
2022-11-12T21:26:16.619Z,55.23
2022-11-12T21:28:44.192Z,53.00
2022-11-12T21:31:15.772Z,52.60
2022-11-12T21:33:43.076Z,58.57
2022-11-12T21:36:15.811Z,57.13
2022-11-12T21:38:43.686Z,55.33
2022-11-12T21:41:12.740Z,50.37
2022-11-12T21:43:40.671Z,63.87
2022-11-12T21:46:15.446Z,61.30
2022-11-12T21:48:42.615Z,63.97
2022-11-12T21:51:14.039Z,71.57
2022-11-12T21:53:41.099Z,62.50
2022-11-12T21:56:12.763Z,69.77
2022-11-12T21:58:39.750Z,76.10
2022-11-12T22:01:17.868Z,72.10
2022-11-12T22:03:44.719Z,75.43
2022-11-12T22:06:12.821Z,71.17
2022-11-12T22:08:40.221Z,75.70
2022-11-12T22:11:12.626Z,82.50
2022-11-12T22:13:39.525Z,75.90
2022-11-12T22:16:10.660Z,75.33
2022-11-12T22:18:37.581Z,72.07
2022-11-12T22:21:28.616Z,69.53
2022-11-12T22:23:56.012Z,72.10
2022-11-12T22:26:25.360Z,73.63
2022-11-12T22:28:53.158Z,75.33
2022-11-12T22:31:24.640Z,71.53
2022-11-12T22:33:51.415Z,68.93
2022-11-12T22:36:22.720Z,65.03
2022-11-12T22:38:50.635Z,66.23
2022-11-12T22:41:21.998Z,61.20
2022-11-12T22:43:51.866Z,63.00
2022-11-12T22:46:20.739Z,61.80
2022-11-12T22:48:47.670Z,57.53
2022-11-12T22:51:18.951Z,54.37
2022-11-12T22:53:45.884Z,56.20
2022-11-12T22:56:15.092Z,51.20
2022-11-12T22:58:43.774Z,52.47
2022-11-12T23:01:21.062Z,49.57
2022-11-12T23:03:48.643Z,46.93
2022-11-12T23:06:15.553Z,48.67
2022-11-12T23:08:42.647Z,46.07
2022-11-12T23:11:11.018Z,42.17
2022-11-12T23:13:38.141Z,46.10
2022-11-12T23:16:09.222Z,42.03
2022-11-12T23:18:36.114Z,43.47
2022-11-12T23:21:07.619Z,44.40
2022-11-12T23:23:35.003Z,41.27
2022-11-12T23:26:11.930Z,37.37
2022-11-12T23:28:38.770Z,44.73
2022-11-12T23:31:06.400Z,41.63
2022-11-12T23:33:33.195Z,43.60
2022-11-12T23:36:09.926Z,40.40
2022-11-12T23:38:36.746Z,41.87
2022-11-12T23:41:03.653Z,39.77
2022-11-12T23:43:30.509Z,37.27
2022-11-12T23:45:58.493Z,38.10
2022-11-12T23:48:25.720Z,38.27
2022-11-12T23:51:03.575Z,39.63
2022-11-12T23:53:30.949Z,37.63
2022-11-12T23:55:57.724Z,38.00
2022-11-12T23:58:24.760Z,39.63
